createdAt,value
2019-01-16T00:01:43.130Z,100330.55
2019-01-16T00:04:28.540Z,100324.52
2019-01-16T00:06:58.620Z,100322.92
2019-01-16T00:09:31.420Z,100322.92
2019-01-16T00:12:10.646Z,100320.95
2019-01-16T00:14:43.222Z,100322.58
2019-01-16T00:17:29.507Z,100320.00
2019-01-16T00:19:59.614Z,100315.78
2019-01-16T00:22:35.534Z,100315.45
2019-01-16T00:25:06.736Z,100316.55
2019-01-16T00:27:48.820Z,100317.42
2019-01-16T00:30:24.896Z,100319.55
2019-01-16T00:32:57.985Z,100321.94
2019-01-16T00:35:37.108Z,100323.99
2019-01-16T00:38:12.780Z,100321.67
2019-01-16T00:40:48.431Z,100315.14
2019-01-16T00:43:24.574Z,100330.03
2019-01-16T00:46:00.754Z,100321.71
2019-01-16T00:48:30.832Z,100322.05
2019-01-16T00:51:17.182Z,100334.86
2019-01-16T00:53:47.268Z,100330.75
2019-01-16T00:56:33.532Z,100343.55
2019-01-16T00:59:19.868Z,100332.92
2019-01-16T01:01:52.594Z,100349.30
2019-01-16T01:04:25.306Z,100335.35
2019-01-16T01:06:55.422Z,100341.92
2019-01-16T01:09:28.331Z,100341.05
2019-01-16T01:11:58.421Z,100350.17
2019-01-16T01:14:31.229Z,100350.55
2019-01-16T01:17:17.587Z,100361.91
2019-01-16T01:20:00.097Z,100365.17
2019-01-16T01:22:30.379Z,100366.13
2019-01-16T01:25:09.430Z,100366.05
2019-01-16T01:27:45.439Z,100373.88
2019-01-16T01:30:18.684Z,100372.58
2019-01-16T01:32:51.522Z,100382.58
2019-01-16T01:35:24.556Z,100389.98
2019-01-16T01:37:54.651Z,100389.16
2019-01-16T01:40:24.757Z,100391.73
2019-01-16T01:42:54.841Z,100401.12
2019-01-16T01:45:43.323Z,100380.95
2019-01-16T01:48:13.410Z,100397.73
2019-01-16T01:50:46.219Z,100395.95
2019-01-16T01:53:16.317Z,100399.98
2019-01-16T01:55:46.417Z,100403.33
2019-01-16T01:58:28.443Z,100406.78
2019-01-16T02:01:04.473Z,100408.80
2019-01-16T02:03:40.196Z,100403.70
2019-01-16T02:06:10.303Z,100407.16
2019-01-16T02:08:40.392Z,100414.92
2019-01-16T02:11:16.211Z,100409.41
2019-01-16T02:13:49.081Z,100403.82
2019-01-16T02:16:22.214Z,100412.80
2019-01-16T02:19:04.397Z,100419.41
2019-01-16T02:21:50.995Z,100422.18
2019-01-16T02:24:36.419Z,100422.06
2019-01-16T02:27:09.253Z,100429.73
2019-01-16T02:29:55.779Z,100429.93
2019-01-16T02:32:25.893Z,100425.59
2019-01-16T02:35:14.068Z,100430.30
2019-01-16T02:37:46.942Z,100443.00
2019-01-16T02:40:17.058Z,100438.94
2019-01-16T02:43:02.227Z,100426.81
2019-01-16T02:45:37.899Z,100433.88
2019-01-16T02:48:13.756Z,100439.89
2019-01-16T02:50:49.863Z,100445.73
2019-01-16T02:53:28.966Z,100442.95
2019-01-16T02:56:08.128Z,100444.92
2019-01-16T02:58:40.966Z,100449.34
2019-01-16T03:01:11.068Z,100449.14
2019-01-16T03:03:46.715Z,100450.92
2019-01-16T03:06:28.842Z,100451.30
2019-01-16T03:09:10.770Z,100455.48
2019-01-16T03:11:57.321Z,100451.95
2019-01-16T03:14:33.354Z,100448.14
2019-01-16T03:17:19.779Z,100455.36
2019-01-16T03:20:01.766Z,100455.20
2019-01-16T03:22:37.936Z,100452.70
2019-01-16T03:25:20.510Z,100455.70
2019-01-16T03:27:53.328Z,100454.00
2019-01-16T03:30:23.429Z,100454.42
2019-01-16T03:33:10.198Z,100449.18
2019-01-16T03:35:52.232Z,100452.55
2019-01-16T03:38:28.060Z,100455.44
2019-01-16T03:41:14.604Z,100456.23
2019-01-16T03:44:02.938Z,100453.94
2019-01-16T03:46:33.047Z,100458.69
2019-01-16T03:49:19.794Z,100455.31
2019-01-16T03:51:55.904Z,100453.45
2019-01-16T03:54:41.851Z,100445.86
2019-01-16T03:57:27.131Z,100454.22
2019-01-16T04:00:00.282Z,100446.66
2019-01-16T04:02:33.143Z,100450.86
2019-01-16T04:05:06.230Z,100448.16
2019-01-16T04:07:42.050Z,100439.53
2019-01-16T04:10:16.828Z,100439.86
2019-01-16T04:13:03.378Z,100438.78
2019-01-16T04:15:36.470Z,100441.48
2019-01-16T04:18:23.274Z,100441.99
2019-01-16T04:20:53.424Z,100436.08
2019-01-16T04:23:25.923Z,100437.70
2019-01-16T04:26:12.405Z,100437.49
2019-01-16T04:29:00.363Z,100433.50
2019-01-16T04:31:30.453Z,100439.88
2019-01-16T04:34:15.408Z,100432.06
2019-01-16T04:36:48.250Z,100431.09
2019-01-16T04:39:34.758Z,100434.69
2019-01-16T04:42:10.682Z,100434.08
2019-01-16T04:44:43.396Z,100433.41
2019-01-16T04:47:16.217Z,100429.31
2019-01-16T04:49:55.124Z,100430.36
2019-01-16T04:52:37.094Z,100434.09
2019-01-16T04:55:10.961Z,100433.74
2019-01-16T04:57:46.709Z,100423.69
2019-01-16T05:00:25.778Z,100430.14
2019-01-16T05:02:55.849Z,100424.91
2019-01-16T05:05:36.133Z,100424.86
2019-01-16T05:08:06.391Z,100419.69
2019-01-16T05:10:36.527Z,100423.15
2019-01-16T05:13:15.596Z,100417.57
2019-01-16T05:15:45.963Z,100414.65
2019-01-16T05:18:16.043Z,100412.12
2019-01-16T05:20:58.248Z,100406.50
2019-01-16T05:23:28.324Z,100405.88
2019-01-16T05:26:10.195Z,100409.06
2019-01-16T05:28:42.980Z,100414.31
2019-01-16T05:31:18.805Z,100408.19
2019-01-16T05:33:51.593Z,100413.42
2019-01-16T05:36:36.707Z,100417.91
2019-01-16T05:39:11.186Z,100418.11
2019-01-16T05:41:58.447Z,100421.11
2019-01-16T05:44:28.544Z,100428.93
2019-01-16T05:46:58.657Z,100430.90
2019-01-16T05:49:31.678Z,100439.52
2019-01-16T05:52:10.594Z,100440.28
2019-01-16T05:54:40.681Z,100443.18
2019-01-16T05:57:10.795Z,100440.14
2019-01-16T05:59:53.107Z,100434.97
2019-01-16T06:02:23.207Z,100441.02
2019-01-16T06:04:55.998Z,100444.29
2019-01-16T06:07:42.203Z,100443.52
2019-01-16T06:10:23.384Z,100439.30
2019-01-16T06:13:09.985Z,100435.05
2019-01-16T06:15:40.081Z,100441.14
2019-01-16T06:18:12.905Z,100437.28
2019-01-16T06:20:43.065Z,100433.90
2019-01-16T06:23:25.141Z,100437.44
2019-01-16T06:25:55.220Z,100430.98
2019-01-16T06:28:25.343Z,100429.05
2019-01-16T06:31:11.642Z,100439.64
2019-01-16T06:33:58.165Z,100436.32
2019-01-16T06:36:40.559Z,100434.57
2019-01-16T06:39:10.886Z,100432.39
2019-01-16T06:41:46.965Z,100431.77
2019-01-16T06:44:17.080Z,100438.45
2019-01-16T06:46:47.175Z,100433.90
2019-01-16T06:49:29.151Z,100443.31
2019-01-16T06:52:03.513Z,100441.03
2019-01-16T06:54:46.501Z,100439.94
2019-01-16T06:57:16.596Z,100444.23
2019-01-16T06:59:55.644Z,100446.81
2019-01-16T07:02:25.774Z,100443.87
2019-01-16T07:04:55.866Z,100441.58
2019-01-16T07:07:44.294Z,100443.48
2019-01-16T07:10:14.619Z,100442.91
2019-01-16T07:12:47.477Z,100454.33
2019-01-16T07:15:26.761Z,100445.91
2019-01-16T07:18:11.590Z,100445.79
2019-01-16T07:20:41.722Z,100442.33
2019-01-16T07:23:28.215Z,100447.16
2019-01-16T07:25:58.341Z,100453.86
2019-01-16T07:28:34.164Z,100456.91
2019-01-16T07:31:19.012Z,100450.86
2019-01-16T07:34:03.870Z,100457.69
2019-01-16T07:36:33.996Z,100453.20
2019-01-16T07:39:16.285Z,100456.94
2019-01-16T07:42:01.355Z,100464.05
2019-01-16T07:44:31.473Z,100459.02
2019-01-16T07:47:18.034Z,100451.68
2019-01-16T07:50:03.458Z,100456.39
2019-01-16T07:52:36.534Z,100454.94
2019-01-16T07:55:27.287Z,100460.19
2019-01-16T07:58:00.124Z,100452.85
2019-01-16T08:00:37.711Z,100456.39
2019-01-16T08:03:10.733Z,100456.17
2019-01-16T08:05:43.774Z,100451.09
2019-01-16T08:08:30.253Z,100459.70
2019-01-16T08:11:02.974Z,100450.92
2019-01-16T08:13:34.039Z,100455.31
2019-01-16T08:16:20.907Z,100455.16
2019-01-16T08:19:07.361Z,100455.31
2019-01-16T08:21:53.242Z,100455.97
2019-01-16T08:24:39.920Z,100455.70
2019-01-16T08:27:22.352Z,100446.38
2019-01-16T08:30:01.470Z,100453.47
2019-01-16T08:32:47.935Z,100454.76
2019-01-16T08:35:18.192Z,100452.42
2019-01-16T08:37:54.457Z,100451.63
2019-01-16T08:40:36.537Z,100452.38
2019-01-16T08:43:22.848Z,100455.08
2019-01-16T08:45:55.526Z,100452.81
2019-01-16T08:48:25.623Z,100459.79
2019-01-16T08:50:55.777Z,100448.61
2019-01-16T08:53:25.843Z,100447.23
2019-01-16T08:56:12.102Z,100446.02
2019-01-16T08:58:42.193Z,100448.05
2019-01-16T09:01:32.495Z,100450.51
2019-01-16T09:04:15.774Z,100449.88
2019-01-16T09:06:51.921Z,100454.36
2019-01-16T09:09:24.819Z,100452.22
2019-01-16T09:12:09.960Z,100458.80
2019-01-16T09:14:55.943Z,100454.61
2019-01-16T09:17:42.694Z,100456.83
2019-01-16T09:20:19.849Z,100448.62
2019-01-16T09:22:58.921Z,100449.34
2019-01-16T09:25:29.033Z,100444.63
2019-01-16T09:27:59.146Z,100451.58
2019-01-16T09:30:44.475Z,100454.70
2019-01-16T09:33:23.523Z,100452.00
2019-01-16T09:35:53.629Z,100458.51
2019-01-16T09:38:32.878Z,100452.41
2019-01-16T09:41:03.010Z,100447.29
2019-01-16T09:43:38.843Z,100448.85
2019-01-16T09:46:08.943Z,100451.89
2019-01-16T09:48:48.315Z,100452.08
2019-01-16T09:51:27.519Z,100457.78
2019-01-16T09:54:15.423Z,100452.55
2019-01-16T09:57:01.951Z,100459.47
2019-01-16T09:59:44.173Z,100456.09
2019-01-16T10:02:30.471Z,100450.37
2019-01-16T10:05:09.842Z,100452.28
2019-01-16T10:07:39.916Z,100440.87
2019-01-16T10:10:12.609Z,100450.27
2019-01-16T10:12:56.207Z,100441.89
2019-01-16T10:15:35.098Z,100434.88
2019-01-16T10:18:21.810Z,100441.14
2019-01-16T10:20:55.860Z,100428.08
2019-01-16T10:23:26.238Z,100428.81
2019-01-16T10:26:11.382Z,100427.67
2019-01-16T10:28:59.565Z,100429.47
2019-01-16T10:31:29.653Z,100422.17
2019-01-16T10:34:02.735Z,100416.19
2019-01-16T10:36:32.823Z,100419.73
2019-01-16T10:39:05.624Z,100410.55
2019-01-16T10:41:41.658Z,100412.41
2019-01-16T10:44:20.796Z,100413.19
2019-01-16T10:46:50.879Z,100408.25
2019-01-16T10:49:24.798Z,100403.34
2019-01-16T10:52:03.992Z,100405.39
2019-01-16T10:54:45.949Z,100395.53
2019-01-16T10:57:27.744Z,100391.02
2019-01-16T11:00:06.820Z,100393.41
2019-01-16T11:02:48.595Z,100379.35
2019-01-16T11:05:34.610Z,100382.70
2019-01-16T11:08:07.614Z,100386.67
2019-01-16T11:10:49.534Z,100382.84
2019-01-16T11:13:22.598Z,100384.48
2019-01-16T11:16:01.404Z,100379.99
2019-01-16T11:18:47.727Z,100371.41
2019-01-16T11:21:33.766Z,100366.58
2019-01-16T11:24:03.838Z,100367.00
2019-01-16T11:26:40.158Z,100357.72
2019-01-16T11:29:10.262Z,100356.22
2019-01-16T11:31:43.040Z,100350.98
2019-01-16T11:34:13.201Z,100345.76
2019-01-16T11:36:43.312Z,100346.84
2019-01-16T11:39:13.397Z,100342.23
2019-01-16T11:41:46.460Z,100343.19
2019-01-16T11:44:22.379Z,100340.42
2019-01-16T11:47:04.581Z,100339.19
2019-01-16T11:49:51.056Z,100337.32
2019-01-16T11:52:21.184Z,100336.48
2019-01-16T11:54:51.276Z,100334.98
2019-01-16T11:57:36.369Z,100337.25
2019-01-16T12:00:09.505Z,100332.15
2019-01-16T12:02:50.343Z,100327.95
2019-01-16T12:05:26.442Z,100335.55
2019-01-16T12:08:05.519Z,100322.95
2019-01-16T12:10:47.702Z,100317.23
2019-01-16T12:13:36.119Z,100317.23
2019-01-16T12:16:09.087Z,100316.67
2019-01-16T12:18:41.938Z,100309.40
2019-01-16T12:21:28.473Z,100305.59
2019-01-16T12:23:58.642Z,100302.30
2019-01-16T12:26:44.025Z,100295.84
2019-01-16T12:29:17.615Z,100295.95
2019-01-16T12:31:47.712Z,100291.83
2019-01-16T12:34:24.825Z,100290.42
2019-01-16T12:37:03.798Z,100290.42
2019-01-16T12:39:50.135Z,100289.23
2019-01-16T12:42:26.221Z,100278.69
2019-01-16T12:45:02.573Z,100278.78
2019-01-16T12:47:44.388Z,100274.91
2019-01-16T12:50:31.675Z,100276.66
2019-01-16T12:53:17.153Z,100272.67
2019-01-16T12:56:05.438Z,100270.02
2019-01-16T12:58:41.281Z,100267.05
2019-01-16T13:01:23.381Z,100262.09
2019-01-16T13:03:56.148Z,100263.17
2019-01-16T13:06:44.307Z,100260.02
2019-01-16T13:09:20.226Z,100260.09
2019-01-16T13:12:01.961Z,100258.56
2019-01-16T13:14:48.422Z,100254.33
2019-01-16T13:17:18.500Z,100250.27
2019-01-16T13:19:57.469Z,100243.98
2019-01-16T13:22:36.273Z,100248.36
2019-01-16T13:25:25.683Z,100247.06
2019-01-16T13:28:01.704Z,100243.47
2019-01-16T13:30:34.978Z,100244.13
2019-01-16T13:33:11.190Z,100240.25
2019-01-16T13:35:57.450Z,100239.51
2019-01-16T13:38:43.976Z,100234.23
2019-01-16T13:41:14.083Z,100233.44
2019-01-16T13:43:50.016Z,100224.95
2019-01-16T13:46:23.082Z,100223.96
2019-01-16T13:49:04.846Z,100229.20
2019-01-16T13:51:34.956Z,100218.48
2019-01-16T13:54:14.119Z,100226.24
2019-01-16T13:57:00.428Z,100214.78
2019-01-16T13:59:42.414Z,100224.50
2019-01-16T14:02:27.468Z,100218.45
2019-01-16T14:04:57.547Z,100210.37
2019-01-16T14:07:27.640Z,100218.03
2019-01-16T14:10:12.693Z,100215.00
2019-01-16T14:12:45.366Z,100214.85
2019-01-16T14:15:16.446Z,100208.22
2019-01-16T14:17:55.606Z,100212.17
2019-01-16T14:20:31.690Z,100206.92
2019-01-16T14:23:07.548Z,100206.89
2019-01-16T14:25:52.709Z,100199.35
2019-01-16T14:28:25.777Z,100188.97
2019-01-16T14:30:55.920Z,100189.77
2019-01-16T14:33:41.076Z,100197.02
2019-01-16T14:36:27.471Z,100190.89
2019-01-16T14:39:06.559Z,100190.09
2019-01-16T14:41:36.637Z,100198.20
2019-01-16T14:44:12.932Z,100184.08
2019-01-16T14:46:51.968Z,100186.33
2019-01-16T14:49:33.792Z,100187.52
2019-01-16T14:52:03.894Z,100183.98
2019-01-16T14:54:34.010Z,100183.80
2019-01-16T14:57:12.556Z,100189.42
2019-01-16T14:59:42.665Z,100188.20
2019-01-16T15:02:15.311Z,100191.14
2019-01-16T15:04:45.447Z,100188.56
2019-01-16T15:07:31.882Z,100182.91
2019-01-16T15:10:04.786Z,100164.35
2019-01-16T15:12:34.873Z,100165.55
2019-01-16T15:15:08.326Z,100166.66
2019-01-16T15:17:44.115Z,100166.70
2019-01-16T15:20:14.396Z,100159.53
2019-01-16T15:22:44.480Z,100161.18
2019-01-16T15:25:30.650Z,100158.59
2019-01-16T15:28:12.294Z,100160.41
2019-01-16T15:30:47.843Z,100166.34
2019-01-16T15:33:23.670Z,100166.88
2019-01-16T15:36:11.890Z,100174.94
2019-01-16T15:38:41.983Z,100168.69
2019-01-16T15:41:12.060Z,100159.37
2019-01-16T15:44:00.101Z,100151.78
2019-01-16T15:46:30.203Z,100148.26
2019-01-16T15:49:00.310Z,100157.88
2019-01-16T15:51:45.423Z,100149.17
2019-01-16T15:54:23.880Z,100149.52
2019-01-16T15:57:07.067Z,100146.63
2019-01-16T15:59:37.178Z,100136.42
2019-01-16T16:02:13.291Z,100136.64
2019-01-16T16:04:52.214Z,100134.39
2019-01-16T16:07:38.503Z,100135.00
2019-01-16T16:10:20.785Z,100128.67
2019-01-16T16:12:53.838Z,100140.55
2019-01-16T16:15:41.828Z,100127.49
2019-01-16T16:18:21.231Z,100131.86
2019-01-16T16:20:54.367Z,100126.80
2019-01-16T16:23:33.657Z,100126.87
2019-01-16T16:26:18.443Z,100121.18
2019-01-16T16:28:57.461Z,100110.28
2019-01-16T16:31:45.583Z,100110.11
2019-01-16T16:34:15.679Z,100104.39
2019-01-16T16:36:45.770Z,100101.80
2019-01-16T16:39:15.877Z,100102.59
2019-01-16T16:41:57.867Z,100101.31
2019-01-16T16:44:42.678Z,100103.65
2019-01-16T16:47:15.237Z,100100.12
2019-01-16T16:49:48.381Z,100093.71
2019-01-16T16:52:25.959Z,100094.17
2019-01-16T16:55:02.390Z,100098.14
2019-01-16T16:57:41.230Z,100089.42
2019-01-16T17:00:13.937Z,100080.03
2019-01-16T17:02:58.426Z,100084.87
2019-01-16T17:05:28.713Z,100082.78
2019-01-16T17:07:58.785Z,100090.29
2019-01-16T17:10:31.591Z,100093.82
2019-01-16T17:13:01.740Z,100096.05
2019-01-16T17:15:48.081Z,100084.77
2019-01-16T17:18:24.309Z,100076.69
2019-01-16T17:21:10.439Z,100075.05
2019-01-16T17:23:55.469Z,100078.22
2019-01-16T17:26:25.574Z,100075.92
2019-01-16T17:28:55.652Z,100069.77
2019-01-16T17:31:31.492Z,100085.13
2019-01-16T17:34:04.668Z,100090.82
2019-01-16T17:36:51.042Z,100078.47
2019-01-16T17:39:24.058Z,100054.48
2019-01-16T17:42:06.174Z,100060.77
2019-01-16T17:44:52.327Z,100060.91
2019-01-16T17:47:22.473Z,100063.66
2019-01-16T17:49:56.369Z,100058.96
2019-01-16T17:52:41.831Z,100053.94
2019-01-16T17:55:23.917Z,100048.94
2019-01-16T17:57:56.728Z,100044.30
2019-01-16T18:00:36.010Z,100065.42
2019-01-16T18:03:06.186Z,100056.09
2019-01-16T18:05:52.128Z,100052.92
2019-01-16T18:08:25.436Z,100040.02
2019-01-16T18:11:11.980Z,100029.09
2019-01-16T18:13:42.060Z,100034.79
2019-01-16T18:16:20.919Z,100030.02
2019-01-16T18:18:51.040Z,100026.83
2019-01-16T18:21:24.153Z,100029.34
2019-01-16T18:24:06.481Z,100020.97
2019-01-16T18:26:39.521Z,100014.86
2019-01-16T18:29:09.631Z,100030.02
2019-01-16T18:31:39.768Z,100032.88
2019-01-16T18:34:09.862Z,100024.46
2019-01-16T18:36:56.188Z,100025.20
2019-01-16T18:39:32.344Z,100021.95
2019-01-16T18:42:05.107Z,100019.79
2019-01-16T18:44:35.193Z,100019.38
2019-01-16T18:47:23.765Z,100008.42
2019-01-16T18:50:06.028Z,100007.66
2019-01-16T18:52:54.182Z,100005.48
2019-01-16T18:55:36.496Z,100006.08
2019-01-16T18:58:22.179Z,100003.71
2019-01-16T19:01:07.257Z,100002.80
2019-01-16T19:03:37.391Z,99994.23
2019-01-16T19:06:13.751Z,100001.03
2019-01-16T19:08:46.575Z,99999.28
2019-01-16T19:11:19.355Z,99988.95
2019-01-16T19:13:49.571Z,99982.71
2019-01-16T19:16:25.616Z,99984.32
2019-01-16T19:19:04.817Z,99975.32
2019-01-16T19:21:37.663Z,99974.38
2019-01-16T19:24:10.918Z,99985.30
2019-01-16T19:26:43.956Z,99975.15
2019-01-16T19:29:31.931Z,99965.48
2019-01-16T19:32:02.101Z,99970.92
2019-01-16T19:34:37.883Z,99971.24
2019-01-16T19:37:20.345Z,99965.84
2019-01-16T19:39:53.204Z,99962.63
2019-01-16T19:42:23.287Z,99949.91
2019-01-16T19:44:53.441Z,99944.68
2019-01-16T19:47:39.880Z,99934.52
2019-01-16T19:50:13.073Z,99937.91
2019-01-16T19:52:43.196Z,99946.73
2019-01-16T19:55:31.537Z,99946.04
2019-01-16T19:58:10.530Z,99941.58
2019-01-16T20:00:40.647Z,99948.97
2019-01-16T20:03:17.880Z,99946.66
2019-01-16T20:05:47.985Z,99940.11
2019-01-16T20:08:29.821Z,99938.16
2019-01-16T20:10:59.949Z,99936.31
2019-01-16T20:13:32.727Z,99927.67
2019-01-16T20:16:05.645Z,99925.51
2019-01-16T20:18:35.743Z,99909.56
2019-01-16T20:21:15.011Z,99906.86
2019-01-16T20:23:48.167Z,99900.31
2019-01-16T20:26:24.067Z,99897.13
2019-01-16T20:28:59.869Z,99900.90
2019-01-16T20:31:38.919Z,99889.57
2019-01-16T20:34:11.731Z,99871.94
2019-01-16T20:36:48.496Z,99874.77
2019-01-16T20:39:27.959Z,99863.33
2019-01-16T20:42:00.841Z,99877.69
2019-01-16T20:44:43.073Z,99887.37
2019-01-16T20:47:30.027Z,99891.63
2019-01-16T20:50:16.126Z,99879.85
2019-01-16T20:52:46.250Z,99875.22
2019-01-16T20:55:22.422Z,99875.22
2019-01-16T20:57:58.851Z,99870.20
2019-01-16T21:00:34.914Z,99893.58
2019-01-16T21:03:05.916Z,99885.32
2019-01-16T21:05:40.417Z,99882.95
2019-01-16T21:08:13.595Z,99871.14
2019-01-16T21:10:58.513Z,99861.63
2019-01-16T21:13:28.619Z,99864.91
2019-01-16T21:16:01.468Z,99875.46
2019-01-16T21:18:31.628Z,99870.83
2019-01-16T21:21:01.742Z,99861.70
2019-01-16T21:23:34.599Z,99849.68
2019-01-16T21:26:04.703Z,99845.81
2019-01-16T21:28:50.523Z,99855.42
2019-01-16T21:31:29.358Z,99846.51
2019-01-16T21:34:09.690Z,99836.89
2019-01-16T21:36:45.973Z,99833.72
2019-01-16T21:39:17.416Z,99822.95
2019-01-16T21:41:53.230Z,99820.38
2019-01-16T21:44:27.587Z,99822.84
2019-01-16T21:47:09.550Z,99818.61
2019-01-16T21:49:48.541Z,99808.16
2019-01-16T21:52:18.674Z,99815.78
2019-01-16T21:54:54.301Z,99819.83
2019-01-16T21:57:24.404Z,99813.55
2019-01-16T22:00:12.806Z,99812.61
2019-01-16T22:02:59.183Z,99808.87
2019-01-16T22:05:29.389Z,99797.86
2019-01-16T22:07:59.482Z,99796.20
2019-01-16T22:10:29.663Z,99791.81
2019-01-16T22:12:59.748Z,99790.52
2019-01-16T22:15:45.158Z,99789.05
2019-01-16T22:18:15.314Z,99775.60
2019-01-16T22:20:45.393Z,99770.70
2019-01-16T22:23:15.527Z,99771.38
2019-01-16T22:25:54.276Z,99770.17
2019-01-16T22:28:27.336Z,99767.70
2019-01-16T22:31:00.158Z,99756.59
2019-01-16T22:33:48.038Z,99761.62
2019-01-16T22:36:24.122Z,99764.42
2019-01-16T22:39:00.431Z,99764.49
2019-01-16T22:41:39.512Z,99761.80
2019-01-16T22:44:12.438Z,99747.36
2019-01-16T22:46:42.522Z,99745.35
2019-01-16T22:49:15.090Z,99746.03
2019-01-16T22:51:45.246Z,99745.98
2019-01-16T22:54:21.186Z,99735.21
2019-01-16T22:57:09.416Z,99737.62
2019-01-16T22:59:54.555Z,99723.74
2019-01-16T23:02:40.971Z,99718.63
2019-01-16T23:05:17.426Z,99712.51
2019-01-16T23:07:53.375Z,99703.34
2019-01-16T23:10:26.158Z,99702.11
2019-01-16T23:13:00.063Z,99696.00
2019-01-16T23:15:35.920Z,99689.39
2019-01-16T23:18:06.114Z,99696.09
2019-01-16T23:20:42.403Z,99689.20
2019-01-16T23:23:21.491Z,99676.31
2019-01-16T23:25:54.583Z,99680.20
2019-01-16T23:28:42.967Z,99669.95
2019-01-16T23:31:13.114Z,99661.83
2019-01-16T23:33:43.213Z,99663.07
2019-01-16T23:36:13.319Z,99656.42
2019-01-16T23:38:58.726Z,99653.40
2019-01-16T23:41:34.557Z,99646.41
2019-01-16T23:44:04.657Z,99646.09
2019-01-16T23:46:43.453Z,99647.33
2019-01-16T23:49:16.170Z,99647.72
2019-01-16T23:51:52.371Z,99644.47
2019-01-16T23:54:28.379Z,99642.91
2019-01-16T23:57:04.350Z,99633.69
2019-01-16T23:59:34.461Z,99639.36
